createdAt,value
2022-09-04T00:02:21.688Z,101968.72
2022-09-04T00:05:13.113Z,101981.66
2022-09-04T00:07:49.504Z,101969.97
2022-09-04T00:10:29.801Z,101975.44
2022-09-04T00:13:11.496Z,101971.19
2022-09-04T00:15:45.153Z,101970.88
2022-09-04T00:18:42.550Z,101982.56
2022-09-04T00:21:21.479Z,101971.59
2022-09-04T00:23:57.242Z,101965.84
2022-09-04T00:26:46.422Z,101980.31
2022-09-04T00:29:17.990Z,101977.56
2022-09-04T00:31:50.283Z,101981.53
2022-09-04T00:34:35.621Z,101981.53
2022-09-04T00:37:06.870Z,101979.25
2022-09-04T00:39:57.194Z,101976.97
2022-09-04T00:43:06.715Z,101989.44
2022-09-04T00:45:55.321Z,101990.66
2022-09-04T00:48:36.171Z,101990.66
2022-09-04T00:51:17.865Z,101985.19
2022-09-04T00:54:06.075Z,101990.66
2022-09-04T00:56:35.598Z,101982.47
2022-09-04T00:59:22.600Z,101985.69
2022-09-04T01:01:51.888Z,101990.41
2022-09-04T01:04:52.313Z,101994.31
2022-09-04T01:07:38.485Z,102001.78
2022-09-04T01:10:23.245Z,102005.28
2022-09-04T01:13:12.941Z,102003.75
2022-09-04T01:15:45.997Z,102006.50
2022-09-04T01:19:05.153Z,102011.22
2022-09-04T01:22:21.316Z,102010.94
2022-09-04T01:25:10.805Z,102011.72
2022-09-04T01:27:55.380Z,102022.66
2022-09-04T01:30:22.600Z,102013.69
2022-09-04T01:33:27.001Z,102007.16
2022-09-04T01:36:23.128Z,102003.19
2022-09-04T01:38:53.681Z,102005.94
2022-09-04T01:41:43.090Z,102007.16
2022-09-04T01:44:11.479Z,102001.69
2022-09-04T01:46:44.030Z,102004.41
2022-09-04T01:49:25.755Z,101997.41
2022-09-04T01:52:13.230Z,102003.66
2022-09-04T01:54:58.321Z,102003.38
2022-09-04T01:57:46.373Z,102000.16
2022-09-04T02:00:24.914Z,101993.63
2022-09-04T02:03:13.259Z,101994.38
2022-09-04T02:06:08.522Z,101989.34
2022-09-04T02:08:47.322Z,101988.59
2022-09-04T02:11:18.240Z,101996.81
2022-09-04T02:14:08.674Z,101992.59
2022-09-04T02:17:02.830Z,102003.06
2022-09-04T02:19:37.329Z,102007.75
2022-09-04T02:22:15.936Z,102008.25
2022-09-04T02:24:55.379Z,102005.19
2022-09-04T02:27:48.435Z,102003.22
2022-09-04T02:30:17.273Z,102001.72
2022-09-04T02:33:02.745Z,102000.19
2022-09-04T02:35:59.913Z,102004.91
2022-09-04T02:38:57.049Z,102003.38
2022-09-04T02:41:37.300Z,102000.66
2022-09-04T02:44:18.772Z,101997.63
2022-09-04T02:47:30.907Z,102006.59
2022-09-04T02:50:14.777Z,102003.09
2022-09-04T02:52:41.853Z,102005.06
2022-09-04T02:55:44.442Z,102005.84
2022-09-04T02:58:26.861Z,102007.03
2022-09-04T03:01:11.061Z,102014.50
2022-09-04T03:03:45.155Z,102013.00
2022-09-04T03:06:18.386Z,102007.03
2022-09-04T03:08:57.126Z,102010.28
2022-09-04T03:11:34.171Z,102015.75
2022-09-04T03:14:17.952Z,102018.47
2022-09-04T03:17:16.920Z,102014.97
2022-09-04T03:19:57.237Z,102017.72
2022-09-04T03:22:29.754Z,102021.97
2022-09-04T03:25:12.036Z,102016.19
2022-09-04T03:27:38.600Z,102019.69
2022-09-04T03:30:08.229Z,102023.97
2022-09-04T03:32:46.944Z,102026.38
2022-09-04T03:35:21.554Z,102023.63
2022-09-04T03:38:01.526Z,102017.41
2022-09-04T03:40:42.976Z,102019.41
2022-09-04T03:43:24.612Z,102028.69
2022-09-04T03:46:28.037Z,102028.81
2022-09-04T03:49:06.430Z,102026.84
2022-09-04T03:51:49.669Z,102036.28
2022-09-04T03:54:51.096Z,102038.25
2022-09-04T03:57:51.531Z,102042.22
2022-09-04T04:00:20.664Z,102044.66
2022-09-04T04:03:34.914Z,102046.63
2022-09-04T04:06:23.654Z,102052.56
2022-09-04T04:08:56.664Z,102050.59
2022-09-04T04:12:00.075Z,102054.06
2022-09-04T04:14:59.323Z,102060.00
2022-09-04T04:17:43.747Z,102060.00
2022-09-04T04:20:18.164Z,102067.91
2022-09-04T04:23:03.034Z,102070.66
2022-09-04T04:26:08.555Z,102076.88
2022-09-04T04:28:59.818Z,102085.09
2022-09-04T04:31:45.277Z,102090.28
2022-09-04T04:34:48.162Z,102094.56
2022-09-04T04:37:32.968Z,102100.03
2022-09-04T04:40:18.954Z,102101.25
2022-09-04T04:42:58.838Z,102096.97
2022-09-04T04:45:51.882Z,102096.19
2022-09-04T04:48:37.108Z,102100.19
2022-09-04T04:51:25.353Z,102112.19
2022-09-04T04:54:01.161Z,102109.16
2022-09-04T04:56:45.767Z,102114.63
2022-09-04T04:59:45.537Z,102128.75
2022-09-04T05:02:19.318Z,102124.81
2022-09-04T05:05:07.592Z,102124.94
2022-09-04T05:07:46.177Z,102128.75
2022-09-04T05:10:22.326Z,102132.72
2022-09-04T05:13:13.881Z,102135.44
2022-09-04T05:16:09.316Z,102138.63
2022-09-04T05:19:00.702Z,102137.13
2022-09-04T05:21:27.104Z,102133.16
2022-09-04T05:24:04.788Z,102135.91
2022-09-04T05:26:52.969Z,102146.09
2022-09-04T05:29:37.669Z,102151.88
2022-09-04T05:32:35.945Z,102157.03
2022-09-04T05:35:35.578Z,102155.50
2022-09-04T05:38:21.360Z,102158.25
2022-09-04T05:41:03.213Z,102158.25
2022-09-04T05:43:54.102Z,102157.03
2022-09-04T05:46:45.056Z,102161.75
2022-09-04T05:49:26.793Z,102162.22
2022-09-04T05:52:01.655Z,102162.22
2022-09-04T05:54:53.988Z,102168.13
2022-09-04T05:57:41.497Z,102164.97
2022-09-04T06:00:19.471Z,102168.13
2022-09-04T06:03:20.235Z,102167.38
2022-09-04T06:06:10.860Z,102166.19
2022-09-04T06:08:49.354Z,102181.81
2022-09-04T06:11:53.011Z,102174.06
2022-09-04T06:14:35.361Z,102174.81
2022-09-04T06:17:12.047Z,102175.56
2022-09-04T06:19:58.146Z,102180.00
2022-09-04T06:23:03.071Z,102176.06
2022-09-04T06:25:51.205Z,102180.28
2022-09-04T06:28:30.063Z,102180.28
2022-09-04T06:31:21.897Z,102191.72
2022-09-04T06:34:03.581Z,102184.56
2022-09-04T06:36:42.431Z,102181.81
2022-09-04T06:39:39.380Z,102181.06
2022-09-04T06:42:21.633Z,102193.56
2022-09-04T06:45:14.264Z,102186.09
2022-09-04T06:48:09.566Z,102194.59
2022-09-04T06:51:08.101Z,102187.59
2022-09-04T06:53:45.128Z,102190.66
2022-09-04T06:56:36.713Z,102193.84
2022-09-04T06:59:28.845Z,102194.31
2022-09-04T07:02:07.612Z,102200.38
2022-09-04T07:04:34.124Z,102207.81
2022-09-04T07:07:14.602Z,102209.34
2022-09-04T07:09:48.272Z,102205.84
2022-09-04T07:12:26.346Z,102214.81
2022-09-04T07:15:31.290Z,102205.41
2022-09-04T13:26:02.338Z,102229.19
2022-09-04T13:28:57.592Z,102223.44
2022-09-04T13:31:59.583Z,102229.19
2022-09-04T13:34:40.735Z,102236.25
2022-09-04T13:37:31.614Z,102236.72
2022-09-04T13:40:17.392Z,102231.94
2022-09-04T13:42:52.483Z,102230.00
2022-09-04T13:45:24.310Z,102235.50
2022-09-04T13:48:23.051Z,102227.72
2022-09-04T13:50:56.094Z,102220.94
2022-09-04T13:53:31.040Z,102223.69
2022-09-04T13:56:10.720Z,102226.19
2022-09-04T13:58:51.368Z,102229.69
2022-09-04T14:01:22.517Z,102225.44
2022-09-04T14:03:55.871Z,102230.94
2022-09-04T14:06:26.709Z,102238.41
2022-09-04T14:09:05.728Z,102227.88
2022-09-04T14:11:58.274Z,102231.44
2022-09-04T14:15:03.100Z,102229.88
2022-09-04T14:17:46.421Z,102234.63
2022-09-04T14:20:23.485Z,102235.13
2022-09-04T14:22:53.098Z,102235.88
2022-09-04T14:25:26.510Z,102237.13
2022-09-04T14:28:09.984Z,102239.34
2022-09-04T14:30:46.342Z,102243.06
2022-09-04T14:33:35.424Z,102247.34
2022-09-04T14:36:28.465Z,102245.06
2022-09-04T14:39:27.540Z,102242.03
2022-09-04T14:42:16.319Z,102243.56
2022-09-04T14:44:54.860Z,102246.03
2022-09-04T14:47:45.057Z,102253.53
2022-09-04T14:50:14.058Z,102250.00
2022-09-04T14:52:54.001Z,102249.22
2022-09-04T14:55:27.992Z,102238.72
2022-09-04T14:58:06.038Z,102243.47
2022-09-04T15:00:34.789Z,102246.69
2022-09-04T15:03:20.555Z,102245.94
2022-09-04T15:05:57.117Z,102247.16
2022-09-04T15:08:39.874Z,102248.38
2022-09-04T15:11:34.777Z,102255.13
2022-09-04T15:14:06.613Z,102248.13
2022-09-04T15:16:39.368Z,102244.63
2022-09-04T15:19:53.916Z,102251.81
2022-09-04T15:22:47.652Z,102255.03
2022-09-04T15:25:17.163Z,102252.00
2022-09-04T15:28:05.991Z,102252.97
2022-09-04T15:30:44.915Z,102246.66
2022-09-04T15:33:18.162Z,102247.16
2022-09-04T15:35:58.513Z,102249.34
2022-09-04T15:38:28.048Z,102251.78
2022-09-04T15:41:15.046Z,102251.06
2022-09-04T15:43:49.171Z,102249.25
2022-09-04T15:46:43.087Z,102251.25
2022-09-04T15:49:31.834Z,102250.94
2022-09-04T15:52:30.863Z,102245.91
2022-09-04T15:55:25.739Z,102256.16
2022-09-04T15:57:57.456Z,102247.66
2022-09-04T16:00:27.245Z,102246.38
2022-09-04T16:03:00.426Z,102257.88
2022-09-04T16:05:44.842Z,102254.84
2022-09-04T16:08:37.070Z,102258.81
2022-09-04T16:11:12.455Z,102255.00
2022-09-04T16:13:46.337Z,102258.22
2022-09-04T16:16:19.694Z,102260.69
2022-09-04T16:19:00.357Z,102260.69
2022-09-04T16:21:40.721Z,102262.41
2022-09-04T16:24:12.197Z,102256.91
2022-09-04T16:26:39.246Z,102261.38
2022-09-04T16:29:29.612Z,102257.84
2022-09-04T16:31:58.432Z,102264.56
2022-09-04T16:34:41.264Z,102263.03
2022-09-04T16:37:18.738Z,102262.78
2022-09-04T16:39:51.113Z,102266.72
2022-09-04T16:42:29.446Z,102267.38
2022-09-04T16:45:10.873Z,102269.66
2022-09-04T16:47:54.783Z,102272.88
2022-09-04T16:50:35.099Z,102272.09
2022-09-04T16:53:42.108Z,102283.59
2022-09-04T16:56:43.639Z,102276.56
2022-09-04T16:59:27.863Z,102285.25
2022-09-04T17:02:22.626Z,102280.72
2022-09-04T17:05:09.073Z,102286.66
2022-09-04T17:07:40.895Z,102284.38
2022-09-04T17:10:26.714Z,102293.88
2022-09-04T17:13:10.218Z,102295.09
2022-09-04T17:15:53.594Z,102295.09
2022-09-04T17:18:24.016Z,102292.06
2022-09-04T17:24:01.289Z,102295.28
2022-09-04T17:29:01.922Z,102292.22
2022-09-04T17:29:13.162Z,102291.00
2022-09-04T17:29:47.973Z,102292.41
2022-09-04T17:35:38.219Z,102294.41
2022-09-04T17:40:41.824Z,102289.84
2022-09-04T17:40:46.823Z,102292.59
2022-09-04T17:41:55.929Z,102299.75
2022-09-04T17:44:37.860Z,102295.22
2022-09-04T17:47:34.021Z,102298.41
2022-09-04T17:50:01.586Z,102302.84
2022-09-04T17:52:32.131Z,102305.59
2022-09-04T17:55:04.136Z,102303.78
2022-09-04T17:57:42.591Z,102311.25
2022-09-04T18:00:21.184Z,102309.75
2022-09-04T18:03:26.347Z,102316.47
2022-09-04T18:06:02.481Z,102322.41
2022-09-04T18:08:43.552Z,102331.13
2022-09-04T18:11:42.743Z,102328.84
2022-09-04T18:14:14.986Z,102323.06
2022-09-04T18:17:11.765Z,102334.47
2022-09-04T18:19:47.017Z,102333.75
2022-09-04T18:22:49.953Z,102340.13
2022-09-04T18:25:43.764Z,102336.34
2022-09-04T18:28:20.122Z,102345.03
2022-09-04T18:37:08.434Z,102342.75
2022-09-04T18:37:18.791Z,102351.47
2022-09-04T18:37:24.339Z,102340.78
2022-09-04T18:39:37.855Z,102356.63
2022-09-04T18:49:14.190Z,102349.94
2022-09-04T18:50:29.376Z,102350.09
2022-09-04T18:50:48.950Z,102351.63
2022-09-04T18:53:50.521Z,102357.28
2022-09-04T18:56:30.641Z,102361.25
2022-09-04T18:59:10.628Z,102367.50
2022-09-04T19:01:42.526Z,102363.69
2022-09-04T19:04:30.880Z,102364.91
2022-09-04T19:07:07.053Z,102357.91
2022-09-04T19:09:55.358Z,102366.59
2022-09-04T19:12:33.747Z,102369.78
2022-09-04T19:15:36.670Z,102376.50
2022-09-04T19:18:20.121Z,102375.25
2022-09-04T19:20:49.175Z,102374.22
2022-09-04T19:23:46.272Z,102373.47
2022-09-04T19:26:25.120Z,102366.44
2022-09-04T19:29:13.605Z,102379.88
2022-09-04T19:32:21.749Z,102372.88
2022-09-04T19:35:02.084Z,102376.84
2022-09-04T19:39:06.832Z,102372.56
2022-09-04T19:46:03.139Z,102378.53
2022-09-04T19:46:13.886Z,102383.25
2022-09-04T19:47:01.681Z,102379.28
2022-09-04T19:53:19.804Z,102383.69
2022-09-04T19:53:30.234Z,102384.47
2022-09-04T19:55:56.707Z,102380.22
2022-09-04T19:58:50.888Z,102384.16
2022-09-04T20:01:23.159Z,102386.59
2022-09-04T20:04:11.602Z,102389.03
2022-09-04T20:06:52.430Z,102388.59
2022-09-04T20:09:28.796Z,102395.31
2022-09-04T20:12:01.640Z,102392.06
2022-09-04T20:14:30.951Z,102401.56
2022-09-04T20:17:11.820Z,102398.81
2022-09-04T20:19:44.921Z,102391.00
2022-09-04T20:22:33.530Z,102396.97
2022-09-04T20:25:29.422Z,102401.97
2022-09-04T20:28:29.290Z,102406.41
2022-09-04T20:31:28.746Z,102409.16
2022-09-04T20:34:25.010Z,102415.41
2022-09-04T20:37:01.148Z,102413.56
2022-09-04T20:39:41.730Z,102418.00
2022-09-04T20:42:32.728Z,102413.28
2022-09-04T20:47:44.526Z,102423.31
2022-09-04T20:52:55.662Z,102421.81
2022-09-04T20:53:05.076Z,102411.28
2022-09-04T20:54:28.834Z,102432.00
2022-09-04T21:03:13.457Z,102418.75
2022-09-04T21:03:14.333Z,102426.25
2022-09-04T21:03:29.951Z,102429.41
2022-09-04T21:06:34.801Z,102436.09
2022-09-04T21:09:19.700Z,102424.88
2022-09-04T21:11:51.743Z,102434.31
2022-09-04T21:14:44.793Z,102428.06
2022-09-04T21:17:33.408Z,102432.03
2022-09-04T21:20:22.792Z,102436.75
2022-09-04T21:23:05.540Z,102441.31
2022-09-04T21:25:52.245Z,102447.25
2022-09-04T21:28:56.209Z,102457.00
2022-09-04T21:31:49.532Z,102446.94
2022-09-04T21:34:18.880Z,102445.41
2022-09-04T21:37:05.587Z,102452.16
2022-09-04T21:40:01.493Z,102465.06
2022-09-04T21:42:39.382Z,102459.13
2022-09-04T21:45:21.040Z,102460.38
2022-09-04T21:48:02.730Z,102465.06
2022-09-04T21:50:43.626Z,102469.00
2022-09-04T21:53:15.054Z,102470.53
2022-09-04T22:01:37.788Z,102470.53
2022-09-04T22:02:35.693Z,102477.25
2022-09-04T22:02:36.082Z,102476.47
2022-09-04T22:05:43.406Z,102475.75
2022-09-04T22:13:31.243Z,102481.69
2022-09-04T22:13:39.418Z,102473.44
2022-09-04T22:14:44.178Z,102482.44
2022-09-04T22:17:10.692Z,102480.91
2022-09-04T22:20:20.200Z,102484.84
2022-09-04T22:23:20.311Z,102482.59
2022-09-04T22:26:25.620Z,102478.63
2022-09-04T22:29:07.442Z,102483.34
2022-09-04T22:32:04.552Z,102481.81
2022-09-04T22:34:57.712Z,102492.03
2022-09-04T22:38:08.735Z,102489.72
2022-09-04T22:40:56.302Z,102489.28
2022-09-04T22:43:25.444Z,102489.72
2022-09-04T22:46:16.566Z,102478.78
2022-09-04T22:49:17.878Z,102478.78
2022-09-04T22:52:10.261Z,102477.25
2022-09-04T22:54:56.727Z,102475.72
2022-09-04T22:57:33.988Z,102483.94
2022-09-04T23:00:17.062Z,102481.19
2022-09-04T23:03:09.906Z,102479.22
2022-09-04T23:06:23.476Z,102478.44
2022-09-04T23:13:43.716Z,102476.97
2022-09-04T23:13:58.563Z,102481.69
2022-09-04T23:15:08.069Z,102476.47
2022-09-04T23:18:02.259Z,102473.75
2022-09-04T23:26:31.014Z,102466.41
2022-09-04T23:26:45.504Z,102469.94
2022-09-04T23:26:46.044Z,102473.13
2022-09-04T23:29:32.748Z,102473.13
2022-09-04T23:32:24.987Z,102473.13
2022-09-04T23:35:24.997Z,102475.13
2022-09-04T23:38:14.411Z,102475.13
2022-09-04T23:40:53.507Z,102478.31
2022-09-04T23:43:47.466Z,102482.25
2022-09-04T23:46:43.791Z,102480.75
2022-09-04T23:49:47.777Z,102481.53
2022-09-04T23:53:05.545Z,102482.72
2022-09-04T23:55:52.759Z,102486.66
2022-09-04T23:59:10.230Z,102483.94
